createdAt,value
2023-09-01T00:00:37.872Z,98072.53
2023-09-01T00:03:07.120Z,98070.84
2023-09-01T00:05:35.095Z,98072.41
2023-09-01T00:08:02.852Z,98074.34
2023-09-01T00:10:30.698Z,98081.66
2023-09-01T00:13:00.921Z,98079.16
2023-09-01T00:15:29.021Z,98070.53
2023-09-01T00:17:58.125Z,98081.59
2023-09-01T00:20:26.176Z,98075.38
2023-09-01T00:22:54.637Z,98077.50
2023-09-01T00:25:23.716Z,98081.84
2023-09-01T00:27:51.567Z,98084.22
2023-09-01T00:30:20.558Z,98074.44
2023-09-01T00:32:48.263Z,98078.28
2023-09-01T00:35:17.773Z,98082.81
2023-09-01T00:37:47.569Z,98086.88
2023-09-01T00:40:15.438Z,98079.03
2023-09-01T00:42:43.132Z,98077.56
2023-09-01T00:45:11.247Z,98080.84
2023-09-01T00:47:39.125Z,98074.84
2023-09-01T00:50:09.142Z,98091.66
2023-09-01T00:52:38.571Z,98090.78
2023-09-01T00:55:07.217Z,98089.16
2023-09-01T00:57:35.928Z,98086.50
2023-09-01T01:00:06.783Z,98084.19
2023-09-01T01:02:36.215Z,98092.81
2023-09-01T01:05:15.515Z,98092.56
2023-09-01T01:07:53.862Z,98085.94
2023-09-01T01:10:26.637Z,98076.94
2023-09-01T01:13:01.560Z,98074.50
2023-09-01T01:15:33.705Z,98075.28
2023-09-01T01:18:06.010Z,98066.69
2023-09-01T01:20:39.169Z,98067.75
2023-09-01T01:23:12.048Z,98068.63
2023-09-01T01:25:47.221Z,98065.84
2023-09-01T01:28:15.694Z,98067.00
2023-09-01T01:30:49.534Z,98067.50
2023-09-01T01:33:40.212Z,98058.09
2023-09-01T01:36:20.929Z,98057.28
2023-09-01T01:38:59.982Z,98052.53
2023-09-01T01:41:34.781Z,98067.00
2023-09-01T01:44:03.381Z,98061.09
2023-09-01T01:46:31.384Z,98051.69
2023-09-01T01:48:59.438Z,98054.03
2023-09-01T01:51:27.169Z,98056.03
2023-09-01T01:53:56.706Z,98058.66
2023-09-01T01:56:24.451Z,98055.59
2023-09-01T01:58:52.619Z,98049.63
2023-09-01T02:01:20.457Z,98057.94
2023-09-01T02:03:48.200Z,98058.59
2023-09-01T02:06:15.959Z,98054.56
2023-09-01T02:08:45.230Z,98053.41
2023-09-01T02:11:14.761Z,98047.19
2023-09-01T02:13:43.651Z,98042.50
2023-09-01T02:16:11.767Z,98050.34
2023-09-01T02:18:39.563Z,98051.22
2023-09-01T02:21:07.266Z,98052.75
2023-09-01T02:23:34.986Z,98050.91
2023-09-01T02:26:03.313Z,98059.19
2023-09-01T02:28:32.650Z,98050.78
2023-09-01T02:31:07.428Z,98050.66
2023-09-01T02:33:35.224Z,98051.63
2023-09-01T02:36:25.630Z,98051.22
2023-09-01T02:38:53.951Z,98047.38
2023-09-01T02:41:22.884Z,98048.88
2023-09-01T02:43:52.955Z,98044.09
2023-09-01T02:46:21.722Z,98035.91
2023-09-01T02:48:49.948Z,98039.56
2023-09-01T02:51:17.751Z,98044.03
2023-09-01T02:53:45.516Z,98045.94
2023-09-01T02:56:13.326Z,98051.88
2023-09-01T02:58:41.510Z,98050.47
2023-09-01T03:01:12.212Z,98045.84
2023-09-01T03:03:42.031Z,98046.66
2023-09-01T03:06:10.408Z,98037.91
2023-09-01T03:08:38.939Z,98042.66
2023-09-01T03:11:07.443Z,98030.59
2023-09-01T03:13:35.380Z,98034.44
2023-09-01T03:16:03.894Z,98039.31
2023-09-01T03:18:33.151Z,98039.38
2023-09-01T03:21:10.696Z,98035.66
2023-09-01T03:23:39.526Z,98036.13
2023-09-01T03:26:08.337Z,98030.59
2023-09-01T03:28:36.298Z,98039.59
2023-09-01T03:31:04.813Z,98028.69
2023-09-01T03:33:34.541Z,98024.44
2023-09-01T03:36:04.120Z,98022.94
2023-09-01T03:38:33.330Z,98024.00
2023-09-01T03:41:03.225Z,98018.94
2023-09-01T03:43:31.152Z,98023.16
2023-09-01T03:45:59.864Z,98027.47
2023-09-01T03:48:27.748Z,98023.47
2023-09-01T03:51:10.946Z,98032.84
2023-09-01T03:53:39.231Z,98030.66
2023-09-01T03:56:12.204Z,98025.16
2023-09-01T03:58:42.594Z,98027.16
2023-09-01T04:01:13.070Z,98022.06
2023-09-01T04:03:42.762Z,98021.94
2023-09-01T04:06:12.154Z,98021.34
2023-09-01T04:08:40.272Z,98018.03
2023-09-01T04:11:08.725Z,98021.69
2023-09-01T04:13:37.326Z,98024.50
2023-09-01T04:16:06.162Z,98027.69
2023-09-01T04:18:34.298Z,98022.78
2023-09-01T04:21:02.977Z,98023.25
2023-09-01T04:23:33.080Z,98023.22
2023-09-01T04:26:04.584Z,98030.31
2023-09-01T04:28:46.599Z,98023.72
2023-09-01T04:31:20.287Z,98020.66
2023-09-01T04:33:52.109Z,98025.03
2023-09-01T04:36:23.459Z,98010.56
2023-09-01T04:39:04.787Z,98023.53
2023-09-01T04:41:33.550Z,98015.31
2023-09-01T04:44:03.267Z,98023.97
2023-09-01T04:46:31.868Z,98014.44
2023-09-01T04:49:01.218Z,98017.56
2023-09-01T04:51:29.876Z,98018.28
2023-09-01T04:53:59.116Z,98020.78
2023-09-01T04:56:26.836Z,98021.16
2023-09-01T04:58:54.810Z,98014.50
2023-09-01T05:01:22.628Z,98020.06
2023-09-01T05:03:50.419Z,98020.00
2023-09-01T05:06:18.426Z,98022.38
2023-09-01T05:08:46.459Z,98027.13
2023-09-01T05:11:15.990Z,98026.38
2023-09-01T05:13:43.736Z,98012.66
2023-09-01T05:16:12.241Z,98021.63
2023-09-01T05:18:41.760Z,98037.00
2023-09-01T05:21:11.434Z,98035.88
2023-09-01T05:23:42.038Z,98024.44
2023-09-01T05:26:09.981Z,98029.03
2023-09-01T05:28:39.101Z,98034.19
2023-09-01T05:31:08.479Z,98036.28
2023-09-01T05:33:38.361Z,98035.88
2023-09-01T05:36:07.029Z,98020.97
2023-09-01T05:38:34.720Z,98024.97
2023-09-01T05:41:06.892Z,98018.66
2023-09-01T05:43:34.854Z,98025.72
2023-09-01T05:46:04.394Z,98026.94
2023-09-01T05:48:32.582Z,98027.41
2023-09-01T05:51:00.619Z,98032.97
2023-09-01T05:53:28.816Z,98035.41
2023-09-01T05:55:56.878Z,98033.81
2023-09-01T05:58:24.725Z,98033.81
2023-09-01T06:00:52.551Z,98031.47
2023-09-01T06:03:26.619Z,98034.56
2023-09-01T06:05:56.332Z,98047.84
2023-09-01T06:08:25.161Z,98047.84
2023-09-01T06:10:55.656Z,98047.03
2023-09-01T06:13:24.705Z,98063.63
2023-09-01T06:15:58.563Z,98067.69
2023-09-01T06:18:29.359Z,98050.44
2023-09-01T06:20:57.710Z,98066.28
2023-09-01T06:23:29.056Z,98060.78
2023-09-01T06:25:58.643Z,98060.78
2023-09-01T06:28:27.595Z,98059.94
2023-09-01T06:30:55.401Z,98060.69
2023-09-01T06:33:23.197Z,98067.03
2023-09-01T06:35:52.298Z,98062.75
2023-09-01T06:38:20.142Z,98070.34
2023-09-01T06:40:47.859Z,98062.56
2023-09-01T06:43:15.734Z,98058.69
2023-09-01T06:45:43.448Z,98055.28
2023-09-01T06:48:11.500Z,98053.38
2023-09-01T06:50:39.810Z,98046.72
2023-09-01T06:53:09.187Z,98055.72
2023-09-01T06:55:37.156Z,98044.69
2023-09-01T06:58:06.235Z,98053.28
2023-09-01T07:00:34.159Z,98057.22
2023-09-01T07:03:01.905Z,98061.34
2023-09-01T07:05:29.724Z,98057.56
2023-09-01T07:07:57.438Z,98061.06
2023-09-01T07:10:26.872Z,98059.16
2023-09-01T07:12:54.768Z,98054.56
2023-09-01T07:15:23.250Z,98049.06
2023-09-01T07:17:51.164Z,98052.28
2023-09-01T07:20:19.664Z,98049.94
2023-09-01T07:22:47.447Z,98056.38
2023-09-01T07:25:17.202Z,98045.41
2023-09-01T07:27:47.682Z,98050.19
2023-09-01T07:30:15.880Z,98051.38
2023-09-01T07:32:43.731Z,98055.44
2023-09-01T07:35:11.680Z,98060.66
2023-09-01T07:37:40.067Z,98062.31
2023-09-01T07:40:08.867Z,98053.69
2023-09-01T07:42:36.612Z,98048.97
2023-09-01T07:45:07.098Z,98058.47
2023-09-01T07:47:35.535Z,98051.41
2023-09-01T07:50:03.465Z,98060.88
2023-09-01T07:52:31.351Z,98047.47
2023-09-01T07:54:59.354Z,98063.97
2023-09-01T07:57:27.356Z,98060.03
2023-09-01T07:59:55.122Z,98062.41
2023-09-01T08:02:24.434Z,98065.97
2023-09-01T08:04:52.239Z,98067.94
2023-09-01T08:07:20.801Z,98080.56
2023-09-01T08:09:49.881Z,98072.34
2023-09-01T08:12:17.953Z,98070.34
2023-09-01T08:14:46.242Z,98079.06
2023-09-01T08:17:14.029Z,98083.38
2023-09-01T08:19:43.133Z,98091.56
2023-09-01T08:22:12.126Z,98086.88
2023-09-01T08:24:39.829Z,98095.53
2023-09-01T08:27:08.176Z,98102.25
2023-09-01T08:29:35.960Z,98103.50
2023-09-01T08:32:04.914Z,98104.28
2023-09-01T08:34:33.237Z,98112.09
2023-09-01T08:37:02.297Z,98116.78
2023-09-01T08:39:30.214Z,98125.50
2023-09-01T08:41:58.510Z,98131.81
2023-09-01T08:44:29.800Z,98131.81
2023-09-01T08:47:00.148Z,98125.94
2023-09-01T08:49:28.224Z,98132.63
2023-09-01T08:51:58.290Z,98137.38
2023-09-01T08:54:28.109Z,98121.66
2023-09-01T08:56:55.865Z,98122.44
2023-09-01T08:59:25.506Z,98120.47
2023-09-01T09:01:53.380Z,98119.31
2023-09-01T09:04:21.716Z,98124.81
2023-09-01T09:06:49.454Z,98126.38
2023-09-01T09:09:18.659Z,98116.91
2023-09-01T09:11:58.425Z,98126.38
2023-09-01T09:14:26.750Z,98127.19
2023-09-01T09:16:55.480Z,98129.97
2023-09-01T09:19:24.962Z,98126.44
2023-09-01T09:22:07.917Z,98129.59
2023-09-01T09:24:37.535Z,98126.81
2023-09-01T09:27:07.807Z,98126.03
2023-09-01T09:29:42.787Z,98132.75
2023-09-01T09:32:18.303Z,98140.63
2023-09-01T09:35:05.233Z,98141.00
2023-09-01T09:37:33.312Z,98139.06
2023-09-01T09:40:12.631Z,98133.94
2023-09-01T09:42:43.451Z,98140.63
2023-09-01T09:45:27.918Z,98133.53
2023-09-01T09:47:57.088Z,98131.16
2023-09-01T09:50:26.580Z,98134.25
2023-09-01T09:53:01.288Z,98105.81
2023-09-01T09:55:30.792Z,98107.63
2023-09-01T09:58:07.452Z,98103.38
2023-09-01T10:00:40.614Z,98100.94
2023-09-01T10:03:09.697Z,98103.47
2023-09-01T10:05:40.007Z,98098.84
2023-09-01T10:08:09.703Z,98104.91
2023-09-01T10:10:38.484Z,98096.00
2023-09-01T10:13:09.671Z,98090.09
2023-09-01T10:15:38.571Z,98095.00
2023-09-01T10:18:09.408Z,98089.50
2023-09-01T10:20:41.606Z,98092.66
2023-09-01T10:23:10.611Z,98103.38
2023-09-01T10:25:39.834Z,98099.91
2023-09-01T10:28:13.484Z,98092.63
2023-09-01T10:30:42.988Z,98092.81
2023-09-01T10:33:12.683Z,98105.50
2023-09-01T10:35:43.203Z,98093.28
2023-09-01T10:38:12.634Z,98098.00
2023-09-01T10:40:45.290Z,98096.44
2023-09-01T10:43:14.388Z,98101.22
2023-09-01T10:45:42.421Z,98100.44
2023-09-01T10:48:14.054Z,98105.69
2023-09-01T10:50:43.573Z,98096.63
2023-09-01T10:53:31.349Z,98103.84
2023-09-01T10:56:13.277Z,98098.59
2023-09-01T10:58:48.778Z,98094.69
2023-09-01T11:01:28.473Z,98086.88
2023-09-01T11:03:57.243Z,98090.09
2023-09-01T11:06:25.516Z,98093.44
2023-09-01T11:09:00.797Z,98092.38
2023-09-01T11:11:29.917Z,98091.75
2023-09-01T11:14:03.566Z,98097.44
2023-09-01T11:16:31.306Z,98107.06
2023-09-01T11:19:02.694Z,98095.78
2023-09-01T11:21:30.944Z,98093.66
2023-09-01T11:24:00.040Z,98091.13
2023-09-01T11:26:29.800Z,98100.94
2023-09-01T11:28:58.805Z,98095.56
2023-09-01T11:31:39.268Z,98094.94
2023-09-01T11:34:07.881Z,98093.56
2023-09-01T11:36:36.343Z,98092.38
2023-09-01T11:39:06.657Z,98095.00
2023-09-01T11:41:34.660Z,98096.44
2023-09-01T11:44:02.853Z,98097.97
2023-09-01T11:46:37.750Z,98094.94
2023-09-01T11:49:07.477Z,98091.06
2023-09-01T11:51:36.749Z,98101.53
2023-09-01T11:54:05.821Z,98089.59
2023-09-01T11:56:34.492Z,98095.69
2023-09-01T11:59:02.914Z,98096.09
2023-09-01T12:01:40.126Z,98097.03
2023-09-01T12:04:11.359Z,98097.22
2023-09-01T12:06:41.097Z,98096.75
2023-09-01T12:09:13.349Z,98096.53
2023-09-01T12:11:54.014Z,98094.59
2023-09-01T12:14:22.871Z,98099.47
2023-09-01T12:16:54.858Z,98093.56
2023-09-01T12:19:37.329Z,98093.94
2023-09-01T12:22:09.306Z,98094.41
2023-09-01T12:24:40.653Z,98078.47
2023-09-01T12:27:09.427Z,98079.38
2023-09-01T12:29:39.796Z,98077.78
2023-09-01T12:32:07.948Z,98077.28
2023-09-01T12:34:39.984Z,98076.38
2023-09-01T12:37:08.669Z,98071.06
2023-09-01T12:39:37.370Z,98078.44
2023-09-01T12:42:05.459Z,98076.44
2023-09-01T12:44:33.837Z,98076.69
2023-09-01T12:47:01.926Z,98075.78
2023-09-01T12:49:30.417Z,98071.63
2023-09-01T12:52:01.228Z,98070.41
2023-09-01T12:54:29.010Z,98074.66
2023-09-01T12:56:56.745Z,98069.28
2023-09-01T12:59:24.840Z,98076.09
2023-09-01T13:01:52.643Z,98073.47
2023-09-01T13:04:20.387Z,98061.06
2023-09-01T13:06:48.109Z,98066.81
2023-09-01T13:09:17.201Z,98065.25
2023-09-01T13:11:45.600Z,98064.16
2023-09-01T13:14:13.401Z,98062.41
2023-09-01T13:16:41.336Z,98063.22
2023-09-01T13:19:09.112Z,98062.78
2023-09-01T13:21:36.874Z,98062.78
2023-09-01T13:24:05.644Z,98065.19
2023-09-01T13:26:35.931Z,98065.00
2023-09-01T13:29:04.026Z,98064.41
2023-09-01T13:31:31.958Z,98058.97
2023-09-01T13:33:59.866Z,98062.22
2023-09-01T13:36:28.683Z,98061.75
2023-09-01T13:38:56.644Z,98065.59
2023-09-01T13:41:24.479Z,98063.25
2023-09-01T13:43:53.565Z,98066.69
2023-09-01T13:46:26.633Z,98066.22
2023-09-01T13:48:58.694Z,98076.09
2023-09-01T13:51:31.522Z,98078.56
2023-09-01T13:53:59.824Z,98070.00
2023-09-01T13:56:27.803Z,98076.97
2023-09-01T13:59:00.436Z,98077.34
2023-09-01T14:01:28.577Z,98067.25
2023-09-01T14:03:56.634Z,98069.22
2023-09-01T14:06:25.229Z,98072.84
2023-09-01T14:08:53.067Z,98078.78
2023-09-01T14:11:20.901Z,98072.88
2023-09-01T14:13:48.912Z,98065.84
2023-09-01T14:16:19.295Z,98073.28
2023-09-01T14:18:49.259Z,98074.44
2023-09-01T14:21:17.166Z,98075.84
2023-09-01T14:23:46.983Z,98061.50
2023-09-01T14:26:19.239Z,98061.34
2023-09-01T14:28:47.437Z,98067.53
2023-09-01T14:31:16.344Z,98053.16
2023-09-01T14:33:48.537Z,98055.34
2023-09-01T14:36:17.052Z,98056.59
2023-09-01T14:38:44.916Z,98054.44
2023-09-01T14:41:17.981Z,98044.91
2023-09-01T14:43:47.993Z,98035.66
2023-09-01T14:46:18.486Z,98025.75
2023-09-01T14:48:47.916Z,98025.44
2023-09-01T14:51:16.570Z,98026.13
2023-09-01T14:53:46.448Z,98022.59
2023-09-01T14:56:16.870Z,98019.91
2023-09-01T14:58:44.617Z,98018.75
2023-09-01T15:01:13.157Z,98024.25
2023-09-01T15:03:40.958Z,98018.75
2023-09-01T15:06:12.631Z,98032.00
2023-09-01T15:08:40.366Z,98026.53
2023-09-01T15:11:08.797Z,98027.28
2023-09-01T15:13:36.854Z,98025.59
2023-09-01T15:16:05.263Z,98022.88
2023-09-01T15:18:33.242Z,98022.47
2023-09-01T15:21:06.659Z,98020.16
2023-09-01T15:23:36.260Z,98024.97
2023-09-01T15:26:04.266Z,98028.34
2023-09-01T15:28:32.199Z,98026.94
2023-09-01T15:30:59.981Z,98025.50
2023-09-01T15:33:28.986Z,98025.13
2023-09-01T15:35:58.683Z,98026.97
2023-09-01T15:38:27.510Z,98030.94
2023-09-01T15:40:59.708Z,98043.50
2023-09-01T15:43:29.005Z,98056.81
2023-09-01T15:45:58.725Z,98050.78
2023-09-01T15:48:27.287Z,98041.00
2023-09-01T15:50:55.804Z,98039.44
2023-09-01T15:53:24.872Z,98033.88
2023-09-01T15:55:55.022Z,98036.16
2023-09-01T15:58:24.766Z,98033.84
2023-09-01T16:01:01.203Z,98036.19
2023-09-01T16:03:37.909Z,98029.94
2023-09-01T16:06:08.709Z,98029.16
2023-09-01T16:08:37.534Z,98027.59
2023-09-01T16:11:05.873Z,98033.97
2023-09-01T16:13:36.208Z,98029.91
2023-09-01T16:16:04.606Z,98033.72
2023-09-01T16:18:33.093Z,98025.47
2023-09-01T16:21:06.208Z,98036.84
2023-09-01T16:23:34.315Z,98038.47
2023-09-01T16:26:02.263Z,98029.81
2023-09-01T16:28:29.960Z,98035.41
2023-09-01T16:31:02.883Z,98036.25
2023-09-01T16:33:30.927Z,98034.09
2023-09-01T16:35:59.977Z,98035.56
2023-09-01T16:38:30.008Z,98045.81
2023-09-01T16:40:59.669Z,98048.22
2023-09-01T16:43:27.679Z,98048.59
2023-09-01T16:45:55.911Z,98055.47
2023-09-01T16:48:25.970Z,98060.28
2023-09-01T16:50:53.923Z,98057.50
2023-09-01T16:53:22.718Z,98058.31
2023-09-01T16:55:51.660Z,98057.03
2023-09-01T16:58:22.469Z,98055.34
2023-09-01T17:00:50.208Z,98068.19
2023-09-01T17:03:18.214Z,98066.75
2023-09-01T17:05:47.687Z,98072.19
2023-09-01T17:08:15.736Z,98068.72
2023-09-01T17:10:43.920Z,98074.22
2023-09-01T17:13:12.287Z,98073.03
2023-09-01T17:15:42.001Z,98071.44
2023-09-01T17:18:11.042Z,98064.03
2023-09-01T17:20:56.003Z,98073.84
2023-09-01T17:23:26.602Z,98073.59
2023-09-01T17:25:56.764Z,98078.03
2023-09-01T17:28:27.152Z,98067.81
2023-09-01T17:30:55.033Z,98074.88
2023-09-01T17:33:23.274Z,98072.63
2023-09-01T17:35:53.234Z,98070.31
2023-09-01T17:38:29.798Z,98075.81
2023-09-01T17:41:06.169Z,98079.09
2023-09-01T17:43:35.865Z,98080.25
2023-09-01T17:46:03.590Z,98087.09
2023-09-01T17:48:31.784Z,98089.13
2023-09-01T17:50:59.744Z,98087.22
2023-09-01T17:53:29.582Z,98097.53
2023-09-01T17:56:00.388Z,98105.53
2023-09-01T17:58:28.147Z,98096.50
2023-09-01T18:00:56.091Z,98101.69
2023-09-01T18:03:24.147Z,98104.81
2023-09-01T18:05:52.187Z,98107.56
2023-09-01T18:08:21.237Z,98112.78
2023-09-01T18:10:50.581Z,98106.84
2023-09-01T18:13:18.967Z,98103.38
2023-09-01T18:15:47.420Z,98111.34
2023-09-01T18:18:15.228Z,98106.63
2023-09-01T18:20:43.264Z,98105.44
2023-09-01T18:23:18.619Z,98116.22
2023-09-01T18:25:46.361Z,98124.16
2023-09-01T18:28:16.782Z,98122.66
2023-09-01T18:30:44.972Z,98124.28
2023-09-01T18:33:25.386Z,98128.59
2023-09-01T18:35:57.114Z,98125.81
2023-09-01T18:38:25.033Z,98137.72
2023-09-01T18:40:54.666Z,98134.22
2023-09-01T18:43:23.882Z,98130.72
2023-09-01T18:45:52.478Z,98140.25
2023-09-01T18:48:24.839Z,98144.25
2023-09-01T18:50:54.904Z,98145.13
2023-09-01T18:53:22.755Z,98149.09
2023-09-01T18:55:50.438Z,98141.97
2023-09-01T18:58:18.328Z,98142.78
2023-09-01T19:00:47.726Z,98145.22
2023-09-01T19:03:21.921Z,98147.59
2023-09-01T19:05:52.483Z,98146.00
2023-09-01T19:08:24.515Z,98141.28
2023-09-01T19:10:54.529Z,98144.06
2023-09-01T19:13:24.161Z,98156.31
2023-09-01T19:15:54.275Z,98167.38
2023-09-01T19:18:30.048Z,98163.44
2023-09-01T19:20:59.183Z,98163.03
2023-09-01T19:23:31.054Z,98163.84
2023-09-01T19:26:01.062Z,98169.78
2023-09-01T19:28:37.849Z,98171.38
2023-09-01T19:31:09.657Z,98169.03
2023-09-01T19:33:41.249Z,98172.19
2023-09-01T19:36:10.598Z,98172.97
2023-09-01T19:38:38.573Z,98178.50
2023-09-01T19:41:08.358Z,98189.56
2023-09-01T19:43:37.325Z,98184.81
2023-09-01T19:46:06.941Z,98188.38
2023-09-01T19:48:39.028Z,98188.78
2023-09-01T19:51:08.150Z,98197.47
2023-09-01T19:53:36.451Z,98195.88
2023-09-01T19:56:13.326Z,98193.91
2023-09-01T19:58:45.102Z,98191.94
2023-09-01T20:01:17.612Z,98195.09
2023-09-01T20:03:47.055Z,98199.81
2023-09-01T20:06:16.214Z,98197.47
2023-09-01T20:08:48.431Z,98191.91
2023-09-01T20:11:24.590Z,98196.59
2023-09-01T20:13:54.651Z,98200.53
2023-09-01T20:16:30.441Z,98192.63
2023-09-01T20:19:13.877Z,98189.84
2023-09-01T20:21:47.303Z,98191.06
2023-09-01T20:24:18.435Z,98192.63
2023-09-01T20:26:53.268Z,98192.63
2023-09-01T20:29:34.939Z,98187.88
2023-09-01T20:32:06.334Z,98202.09
2023-09-01T20:34:38.175Z,98198.16
2023-09-01T20:37:13.872Z,98196.16
2023-09-01T20:39:43.507Z,98199.72
2023-09-01T20:42:13.808Z,98205.28
2023-09-01T20:44:45.859Z,98215.53
2023-09-01T20:47:21.352Z,98213.94
2023-09-01T20:49:52.412Z,98217.13
2023-09-01T20:52:21.907Z,98214.75
2023-09-01T20:54:52.685Z,98221.06
2023-09-01T20:57:21.845Z,98215.53
2023-09-01T20:59:50.887Z,98226.22
2023-09-01T21:02:19.321Z,98225.81
2023-09-01T21:04:48.217Z,98228.97
2023-09-01T21:07:17.468Z,98225.81
2023-09-01T21:09:45.492Z,98221.88
2023-09-01T21:12:13.818Z,98237.28
2023-09-01T21:14:41.670Z,98241.66
2023-09-01T21:17:09.413Z,98238.47
2023-09-01T21:19:37.174Z,98232.97
2023-09-01T21:22:05.105Z,98240.06
2023-09-01T21:24:34.320Z,98246.38
2023-09-01T21:27:02.000Z,98241.66
2023-09-01T21:29:29.784Z,98238.09
2023-09-01T21:31:57.847Z,98240.06
2023-09-01T21:34:25.638Z,98242.44
2023-09-01T21:36:53.326Z,98243.66
2023-09-01T21:39:21.021Z,98243.66
2023-09-01T21:41:50.224Z,98235.72
2023-09-01T21:44:19.588Z,98236.91
2023-09-01T21:46:47.378Z,98245.59
2023-09-01T21:49:17.165Z,98247.56
2023-09-01T21:51:46.675Z,98248.78
2023-09-01T21:54:14.480Z,98247.59
2023-09-01T21:56:42.204Z,98246.00
2023-09-01T21:59:11.407Z,98247.97
2023-09-01T22:01:39.102Z,98253.53
2023-09-01T22:04:07.381Z,98251.53
2023-09-01T22:06:35.333Z,98252.31
2023-09-01T22:09:03.075Z,98255.06
2023-09-01T22:11:30.737Z,98253.50
2023-09-01T22:13:58.459Z,98262.97
2023-09-01T22:16:28.490Z,98254.69
2023-09-01T22:18:57.292Z,98251.13
2023-09-01T22:21:25.064Z,98258.66
2023-09-01T22:23:52.815Z,98259.81
2023-09-01T22:26:21.760Z,98269.28
2023-09-01T22:28:49.554Z,98266.94
2023-09-01T22:31:17.265Z,98269.69
2023-09-01T22:33:46.450Z,98276.41
2023-09-01T22:36:14.381Z,98270.09
2023-09-01T22:38:43.647Z,98282.72
2023-09-01T22:41:12.634Z,98274.03
2023-09-01T22:43:41.382Z,98273.66
2023-09-01T22:46:09.215Z,98274.03
2023-09-01T22:48:36.982Z,98279.59
2023-09-01T22:51:06.141Z,98289.03
2023-09-01T22:53:33.863Z,98287.88
2023-09-01T22:56:01.555Z,98296.16
2023-09-01T22:58:29.350Z,98288.25
2023-09-01T23:00:57.609Z,98290.22
2023-09-01T23:03:25.454Z,98291.78
2023-09-01T23:05:53.256Z,98296.91
2023-09-01T23:08:22.347Z,98297.69
2023-09-01T23:10:51.071Z,98303.59
2023-09-01T23:13:19.138Z,98302.44
2023-09-01T23:15:47.061Z,98308.34
2023-09-01T23:18:15.094Z,98306.69
2023-09-01T23:20:43.289Z,98311.03
2023-09-01T23:23:11.287Z,98303.13
2023-09-01T23:25:40.899Z,98311.81
2023-09-01T23:28:08.581Z,98311.00
2023-09-01T23:30:36.487Z,98314.13
2023-09-01T23:33:04.671Z,98316.50
2023-09-01T23:35:33.305Z,98318.03
2023-09-01T23:38:01.144Z,98316.44
2023-09-01T23:40:28.880Z,98321.97
2023-09-01T23:42:57.918Z,98327.13
2023-09-01T23:45:27.368Z,98314.09
2023-09-01T23:47:55.807Z,98319.59
2023-09-01T23:50:24.185Z,98323.53
2023-09-01T23:52:51.913Z,98314.09
2023-09-01T23:55:19.834Z,98315.63
2023-09-01T23:57:47.655Z,98317.66
